Terminal Aerodrome Forecast
Issued by NWS

Home | Current Version | Previous Version | Graphics & Text | Print | Product List | Glossary On
Versions: 1 2 3 4 5 6 7 8 9 10 11 12 13 14 15 16 17 18 19 20 21 22
393
FTUS43 KGRB 210520
TAFCWA
TAF
KCWA 210520Z 2106/2206 12003KT P6SM BKN250
     FM211800 12007KT P6SM BKN035
     FM212000 11008KT 6SM -SHRA BKN021
     FM212200 12007KT 5SM -RA BR BKN013
     FM220400 11003KT 5SM -SHRA BR BKN009
      AMD LTD TO CLD VIS AND WIND TIL 211100=

USA.gov is the U.S. government's official web portal to all federal, state and local government web resources and services.